Main page
METAR-TAF:

METAR-TAF

Airports :

Heritage Field Airport

Pottstown, Pennsylvania, United States

latitude: 40-14-18N, longitude: 075-33-26W, elevation: 292 ft

Current weather observation

The report was made 17 minutes ago, at 17:54 UTC
Wind 14 mph from the West with gusts up to 30 mph
Temperature 39°F
Humidity 48%
Pressure 29.68 in. Hg
Visibility: 10 miles
Broken clouds at a height of 5000 ft

METAR: KPTW 271754Z AUTO 27012G26KT 10SM BKN050 04/M06 A2968 RMK AO2 PK WND 30030/1659 SLP050 T00441061 10044 20006 51012

Time: 13:11 (18:11 UTC)


TAF: missing

Weather observations and forecasts of more than 4000 airports (METAR and TAF reports).

The available stations are represented by yellow and red dots on the map.

Hover mouse over dot to see the name of the station.

Then click to see weather observations and forecasts.

To change the map : click on the green buttons with a black cross to zoom in, on the green button with a dash to zoom out, or on the green arrows for adjacent maps.


METAR-TAF: